»·PEaware :: N2382R L52-L88

N2382R :: L52-L88

FLIGHT INFORMATION

Flight Status: Arrived
Operator: Privately registered:
United States
More flights under this callsign
Pilot: Peter G. (45030)
Aircraft: CESSNA 172 SKYHAWK
(C172)
More flights by this aircraft type
Origin: L52 Oceano Co
United States
Destination: L88 New Cuyama
United States
More flights between these airports :: More routes between these airports
Route: 350034N1202110W 350650N1200613W 350116N1195121W
File this flight plan on PilotEdge
Remarks:
Altitude:
(Current/Filed)
7,500ft
Speed:
(Current/Filed)
110kts
Departed: 27-Nov-23 05:39 AM
Arrived: 27-Nov-23 06:18 AM
Distance/Time
Traveled:
47nm/0:39
Distance/Time
To Go:
Arrived

Flight Plot

Page will automatically refresh every two minutes.

Flight plan parsing failed; only flown route is shown


Map Options




Map Legend


Flown Route
Filed Route
Departure Airport
Arrival Airport
Navaid (VOR, NDB)
Fix

Horizontal Profiles

Position Reports

Time Latitude Longitude Heading Altitude Ground
Speed
27-Nov-23 05:22 35.102469 -120.622926 0 16ft 0kts
27-Nov-23 05:23 35.102469 -120.622926 33 16ft 0kts
27-Nov-23 05:24 35.102469 -120.622926 33 16ft 0kts
27-Nov-23 05:25 35.102469 -120.622926 33 16ft 0kts
27-Nov-23 05:26 35.102469 -120.622926 33 16ft 0kts
27-Nov-23 05:31 35.102469 -120.622927 33 16ft 0kts
27-Nov-23 05:32 35.102469 -120.622927 33 16ft 0kts
27-Nov-23 05:33 35.102469 -120.622927 33 16ft 0kts
27-Nov-23 05:34 35.102470 -120.622926 31 16ft 0kts
27-Nov-23 05:35 35.101930 -120.622205 212 16ft 2kts
27-Nov-23 05:36 35.101925 -120.622208 210 16ft 0kts
27-Nov-23 05:37 35.102322 -120.624781 302 14ft 9kts
27-Nov-23 05:38 35.101478 -120.622357 121 16ft 64kts
27-Nov-23 05:39 35.089717 -120.599936 115 785ft 82kts
27-Nov-23 05:40 35.079605 -120.574547 109 1607ft 84kts
27-Nov-23 05:41 35.070884 -120.548211 112 2387ft 83kts
27-Nov-23 05:42 35.060712 -120.522762 115 3110ft 83kts
27-Nov-23 05:43 35.058660 -120.496084 117 3801ft 79kts
27-Nov-23 05:44 35.049187 -120.471338 109 4417ft 81kts
27-Nov-23 05:45 35.041832 -120.445407 111 5051ft 80kts
27-Nov-23 05:46 35.034091 -120.419960 109 5609ft 81kts
27-Nov-23 05:47 35.024895 -120.395454 112 6141ft 82kts
27-Nov-23 05:48 35.016533 -120.370357 102 6657ft 81kts
27-Nov-23 05:49 35.022054 -120.344008 55 7128ft 93kts
27-Nov-23 05:50 35.038251 -120.315961 59 7270ft 109kts
27-Nov-23 05:51 35.054622 -120.285313 67 7242ft 102kts
27-Nov-23 05:52 35.068451 -120.255224 64 7255ft 101kts
27-Nov-23 05:53 35.078269 -120.224006 82 7264ft 98kts
27-Nov-23 05:54 35.083697 -120.192045 85 7312ft 97kts
27-Nov-23 05:55 35.091477 -120.160083 79 7376ft 97kts
27-Nov-23 05:56 35.099263 -120.128170 76 7438ft 98kts
27-Nov-23 05:57 35.106932 -120.094442 89 7345ft 103kts
27-Nov-23 05:58 35.098118 -120.063071 111 7380ft 100kts
27-Nov-23 05:59 35.087041 -120.031831 113 7360ft 103kts
27-Nov-23 06:00 35.074945 -120.000884 118 7425ft 97kts
27-Nov-23 06:01 35.069390 -119.968067 81 7388ft 103kts
27-Nov-23 06:02 35.073005 -119.934046 111 7389ft 102kts
27-Nov-23 06:03 35.059784 -119.904535 131 7439ft 100kts
27-Nov-23 06:04 35.042210 -119.878439 121 7491ft 97kts
27-Nov-23 06:05 35.028121 -119.848435 118 7281ft 101kts
27-Nov-23 06:06 35.016418 -119.817253 111 6473ft 101kts
27-Nov-23 06:07 35.004312 -119.786761 116 5699ft 98kts
27-Nov-23 06:08 34.990317 -119.757560 141 4894ft 101kts
27-Nov-23 06:09 34.969312 -119.734882 127 4146ft 101kts
27-Nov-23 06:10 34.951944 -119.708247 123 3669ft 98kts
27-Nov-23 06:11 34.933719 -119.683543 151 3585ft 101kts
27-Nov-23 06:12 34.916477 -119.661817 66 3365ft 98kts
27-Nov-23 06:13 34.933287 -119.677157 283 2967ft 107kts
27-Nov-23 06:14 34.941107 -119.709339 290 2883ft 85kts
27-Nov-23 06:15 34.956111 -119.715195 83 2484ft 74kts
27-Nov-23 06:16 34.944557 -119.695993 122 2316ft 66kts
27-Nov-23 06:17 34.939513 -119.685088 113 2178ft 0kts

Navigation Log

Ident Type
Flight plan parsing failed, navigation log unavailable